Time;durP1;ratioP1;P1;durP2;ratioP2;P2;SDS_P1;SDS_P2;PMS_P1;PMS_P2;Temp;Humidity;BMP_temperature;BMP_pressure;BME280_temperature;BME280_humidity;BME280_pressure;Samples;Min_cycle;Max_cycle;Signal;HPM_P1;HPM_P2
2023/08/29 00:00:02;;;;;;;14.30;12.80;;;;;;;;;;5053819;28;20556;-69
2023/08/29 00:02:31;;;;;;;15.53;14.03;;;;;;;;;;5054272;28;20185;-69
2023/08/29 00:04:57;;;;;;;16.50;14.93;;;;;;;;;;5053750;28;20560;-68
2023/08/29 00:07:23;;;;;;;14.77;13.50;;;;;;;;;;5054039;28;20216;-69
2023/08/29 00:09:49;;;;;;;16.73;15.10;;;;;;;;;;5053549;28;20566;-69
2023/08/29 00:12:15;;;;;;;15.33;13.97;;;;;;;;;;5053806;28;20193;-69
2023/08/29 00:14:41;;;;;;;15.13;13.67;;;;;;;;;;5053405;28;20668;-68
2023/08/29 00:17:07;;;;;;;14.47;13.03;;;;;;;;;;5035620;28;20269;-69
2023/08/29 00:19:34;;;;;;;15.97;14.27;;;;;;;;;;5035531;28;20766;-68
2023/08/29 00:22:00;;;;;;;15.63;14.13;;;;;;;;;;5035374;28;20223;-68
2023/08/29 00:24:26;;;;;;;17.10;15.40;;;;;;;;;;5053260;28;20202;-69
2023/08/29 00:26:52;;;;;;;18.00;16.10;;;;;;;;;;5056110;28;20723;-68
2023/08/29 00:29:18;;;;;;;17.83;15.03;;;;;;;;;;5055387;28;20228;-69
2023/08/29 00:31:44;;;;;;;17.60;15.80;;;;;;;;;;5054076;28;20266;-68
2023/08/29 00:34:10;;;;;;;19.33;17.43;;;;;;;;;;5054445;28;20202;-68
2023/08/29 00:36:36;;;;;;;20.33;18.20;;;;;;;;;;5053571;28;20182;-68
2023/08/29 00:39:03;;;;;;;18.60;16.93;;;;;;;;;;5053758;28;20265;-68
2023/08/29 00:41:30;;;;;;;18.13;15.53;;;;;;;;;;5053970;28;20174;-68
2023/08/29 00:43:56;;;;;;;18.17;16.47;;;;;;;;;;5035201;28;20581;-69
2023/08/29 00:46:23;;;;;;;20.00;18.03;;;;;;;;;;5053189;28;20178;-69
2023/08/29 00:48:49;;;;;;;21.00;18.87;;;;;;;;;;5035394;28;20273;-69
2023/08/29 00:51:16;;;;;;;21.10;18.97;;;;;;;;;;5053364;28;20201;-68
2023/08/29 00:53:43;;;;;;;20.27;18.17;;;;;;;;;;5035745;28;20629;-68
2023/08/29 00:56:09;;;;;;;20.47;18.37;;;;;;;;;;5053215;28;20178;-70
2023/08/29 00:58:37;;;;;;;20.70;18.70;;;;;;;;;;5053294;28;20221;-69
2023/08/29 01:01:03;;;;;;;19.63;17.77;;;;;;;;;;5053279;28;20280;-69
2023/08/29 01:03:30;;;;;;;19.63;17.80;;;;;;;;;;5053223;28;20244;-69
2023/08/29 01:05:56;;;;;;;20.13;18.03;;;;;;;;;;5035141;28;20300;-69
2023/08/29 01:08:22;;;;;;;19.97;18.13;;;;;;;;;;5053001;28;20210;-68
2023/08/29 01:10:51;;;;;;;19.60;17.70;;;;;;;;;;5052997;28;20637;-69
2023/08/29 01:13:19;;;;;;;20.83;18.57;;;;;;;;;;5052849;28;20664;-69
2023/08/29 01:15:48;;;;;;;20.90;18.80;;;;;;;;;;5035276;28;20220;-69
2023/08/29 01:18:16;;;;;;;20.70;18.57;;;;;;;;;;5035189;28;20228;-69
2023/08/29 01:20:43;;;;;;;20.73;18.73;;;;;;;;;;5035368;28;20193;-68
2023/08/29 01:23:18;;;;;;;20.70;18.83;;;;;;;;;;5035397;28;20209;-69
2023/08/29 01:26:03;;;;;;;21.67;19.37;;;;;;;;;;5055384;28;20636;-68
2023/08/29 01:28:30;;;;;;;21.93;19.73;;;;;;;;;;5053684;28;20217;-69
2023/08/29 01:30:56;;;;;;;21.37;19.10;;;;;;;;;;5036035;28;20232;-69
2023/08/29 01:33:22;;;;;;;21.50;19.30;;;;;;;;;;5053531;28;20198;-69
2023/08/29 01:35:48;;;;;;;21.73;19.17;;;;;;;;;;5035770;28;20186;-69
2023/08/29 01:38:17;;;;;;;20.90;18.87;;;;;;;;;;5053491;28;20181;-69
2023/08/29 01:40:43;;;;;;;20.67;18.60;;;;;;;;;;5053180;28;20175;-68
2023/08/29 01:43:09;;;;;;;21.43;19.30;;;;;;;;;;5053251;28;20186;-69
2023/08/29 01:45:35;;;;;;;18.63;16.90;;;;;;;;;;5052831;28;20548;-69
2023/08/29 01:48:01;;;;;;;20.17;18.17;;;;;;;;;;5034794;28;20202;-68
2023/08/29 01:50:28;;;;;;;21.43;19.03;;;;;;;;;;5034870;28;20637;-68
2023/08/29 01:52:54;;;;;;;22.13;18.93;;;;;;;;;;5034819;28;20178;-68
2023/08/29 01:55:20;;;;;;;20.17;18.13;;;;;;;;;;5052714;28;20178;-68
2023/08/29 01:57:48;;;;;;;20.60;18.50;;;;;;;;;;5055711;28;20636;-69
2023/08/29 02:00:14;;;;;;;22.63;18.97;;;;;;;;;;5038276;28;20261;-69
2023/08/29 02:02:40;;;;;;;21.57;19.43;;;;;;;;;;5056278;28;20693;-68
2023/08/29 02:05:06;;;;;;;20.47;18.40;;;;;;;;;;5056090;28;20198;-69
2023/08/29 02:07:32;;;;;;;25.05;22.70;;;;;;;;;;5054822;28;20431;-69
2023/08/29 02:09:58;;;;;;;22.13;20.03;;;;;;;;;;5055968;28;20174;-68
2023/08/29 02:12:24;;;;;;;21.53;19.53;;;;;;;;;;5056179;28;20245;-68
2023/08/29 02:14:50;;;;;;;20.97;18.77;;;;;;;;;;5055726;28;20356;-69
2023/08/29 02:17:16;;;;;;;22.30;19.93;;;;;;;;;;5037794;28;20185;-68
2023/08/29 02:19:42;;;;;;;20.03;18.03;;;;;;;;;;5056661;28;20185;-68
2023/08/29 02:22:08;;;;;;;19.23;17.30;;;;;;;;;;5056273;28;20174;-69
2023/08/29 02:24:34;;;;;;;19.53;17.70;;;;;;;;;;5037896;28;20195;-68
2023/08/29 02:27:00;;;;;;;19.10;17.13;;;;;;;;;;5056033;28;20206;-69
2023/08/29 02:29:26;;;;;;;18.90;17.10;;;;;;;;;;5037698;28;20330;-69
2023/08/29 02:31:52;;;;;;;21.10;19.07;;;;;;;;;;5056187;28;20178;-69
2023/08/29 02:34:18;;;;;;;20.93;18.67;;;;;;;;;;5055715;28;20194;-68
2023/08/29 02:36:44;;;;;;;21.70;19.23;;;;;;;;;;5055818;28;20253;-69
2023/08/29 02:39:10;;;;;;;21.63;19.63;;;;;;;;;;5055496;28;20179;-68
2023/08/29 02:41:37;;;;;;;22.40;20.10;;;;;;;;;;5056718;28;20647;-68
2023/08/29 02:44:03;;;;;;;21.77;19.73;;;;;;;;;;5056913;28;20242;-68
2023/08/29 02:46:29;;;;;;;22.53;19.67;;;;;;;;;;5060627;28;20332;-68
2023/08/29 02:48:55;;;;;;;21.60;18.53;;;;;;;;;;5046252;28;20673;-68
2023/08/29 02:51:21;;;;;;;21.07;19.00;;;;;;;;;;5061616;28;20170;-68
2023/08/29 02:53:47;;;;;;;20.17;18.13;;;;;;;;;;5061367;28;20201;-68
2023/08/29 02:56:13;;;;;;;22.23;19.47;;;;;;;;;;5059764;28;20221;-68
2023/08/29 02:58:39;;;;;;;19.10;17.10;;;;;;;;;;5059115;28;20179;-68
2023/08/29 03:01:09;;;;;;;21.57;17.87;;;;;;;;;;5056049;28;20217;-68
2023/08/29 03:03:35;;;;;;;22.33;17.63;;;;;;;;;;5055608;28;20267;-68
2023/08/29 03:06:01;;;;;;;18.93;16.73;;;;;;;;;;5055268;28;20659;-68
2023/08/29 03:08:27;;;;;;;18.53;16.73;;;;;;;;;;5054823;28;20616;-69
2023/08/29 03:10:53;;;;;;;20.70;18.63;;;;;;;;;;5055476;28;20587;-68
2023/08/29 03:13:19;;;;;;;19.50;17.60;;;;;;;;;;5055194;28;20190;-68
2023/08/29 03:15:46;;;;;;;20.33;18.23;;;;;;;;;;5055008;28;20154;-68
2023/08/29 03:18:12;;;;;;;21.03;18.80;;;;;;;;;;5037035;28;20225;-69
2023/08/29 03:20:41;;;;;;;20.07;17.93;;;;;;;;;;5054886;28;20174;-68
2023/08/29 03:23:07;;;;;;;21.33;19.03;;;;;;;;;;5036566;28;20189;-68
2023/08/29 03:25:33;;;;;;;21.60;19.23;;;;;;;;;;5054647;28;20179;-68
2023/08/29 03:27:59;;;;;;;20.33;18.33;;;;;;;;;;5036772;28;20687;-68
2023/08/29 03:30:26;;;;;;;21.40;19.30;;;;;;;;;;5054408;28;20257;-69
2023/08/29 03:32:52;;;;;;;21.67;19.63;;;;;;;;;;5054796;28;20171;-69
2023/08/29 03:35:18;;;;;;;21.63;19.30;;;;;;;;;;5054229;28;20198;-68
2023/08/29 03:37:44;;;;;;;20.97;19.03;;;;;;;;;;5054492;28;20189;-67
2023/08/29 03:40:10;;;;;;;20.53;18.53;;;;;;;;;;5054214;28;20194;-68
2023/08/29 03:42:36;;;;;;;21.17;18.97;;;;;;;;;;5036389;28;20225;-69
2023/08/29 03:45:03;;;;;;;22.53;20.40;;;;;;;;;;5053883;28;20221;-69
2023/08/29 03:47:29;;;;;;;21.07;19.03;;;;;;;;;;5053987;28;20230;-69
2023/08/29 03:49:55;;;;;;;22.27;19.87;;;;;;;;;;5053920;28;20640;-69
2023/08/29 03:52:22;;;;;;;21.70;19.47;;;;;;;;;;5054160;28;20174;-69
2023/08/29 03:54:48;;;;;;;22.23;20.00;;;;;;;;;;5036131;28;20582;-68
2023/08/29 03:57:14;;;;;;;24.00;20.57;;;;;;;;;;5036590;28;20213;-69
2023/08/29 03:59:40;;;;;;;23.40;21.03;;;;;;;;;;5054032;28;20598;-69
2023/08/29 04:02:07;;;;;;;22.40;20.13;;;;;;;;;;5053879;28;20189;-68
2023/08/29 04:04:35;;;;;;;22.53;20.03;;;;;;;;;;5054243;28;20201;-68
2023/08/29 04:07:01;;;;;;;22.63;20.33;;;;;;;;;;5036005;28;20206;-68
2023/08/29 04:09:27;;;;;;;22.17;19.97;;;;;;;;;;5054113;28;20640;-68
2023/08/29 04:11:53;;;;;;;22.80;20.10;;;;;;;;;;5055251;28;20175;-70
2023/08/29 04:14:19;;;;;;;21.33;18.87;;;;;;;;;;5054691;28;20214;-69
2023/08/29 04:16:45;;;;;;;21.80;19.60;;;;;;;;;;5036293;28;20641;-69
2023/08/29 04:19:14;;;;;;;23.27;20.97;;;;;;;;;;5053002;28;20258;-69
2023/08/29 04:21:40;;;;;;;23.83;21.33;;;;;;;;;;5053802;28;20181;-68
2023/08/29 04:24:06;;;;;;;23.00;20.67;;;;;;;;;;5053221;28;20213;-69
2023/08/29 04:26:32;;;;;;;24.40;21.53;;;;;;;;;;5053260;28;20632;-69
2023/08/29 04:28:58;;;;;;;26.10;23.33;;;;;;;;;;5053194;28;20580;-68
2023/08/29 04:31:24;;;;;;;24.23;21.87;;;;;;;;;;5053169;28;20185;-69
2023/08/29 04:33:50;;;;;;;23.80;21.23;;;;;;;;;;5053253;28;20703;-68
2023/08/29 04:36:17;;;;;;;25.47;22.87;;;;;;;;;;5053672;28;20175;-69
2023/08/29 04:38:45;;;;;;;23.57;21.03;;;;;;;;;;5053344;28;20175;-68
2023/08/29 04:41:11;;;;;;;23.30;21.10;;;;;;;;;;5053434;28;20171;-69
2023/08/29 04:43:38;;;;;;;22.00;19.87;;;;;;;;;;5053087;28;20199;-68
2023/08/29 04:46:04;;;;;;;23.27;20.97;;;;;;;;;;5053072;28;20253;-68
2023/08/29 04:48:30;;;;;;;24.77;22.23;;;;;;;;;;5053076;28;20281;-69
2023/08/29 04:50:56;;;;;;;25.67;21.53;;;;;;;;;;5053526;28;20231;-68
2023/08/29 04:53:22;;;;;;;25.37;22.30;;;;;;;;;;5052878;28;20732;-68
2023/08/29 04:55:48;;;;;;;25.77;22.90;;;;;;;;;;5053748;28;20191;-68
2023/08/29 04:58:14;;;;;;;23.67;21.27;;;;;;;;;;5055847;28;20636;-70
2023/08/29 05:00:40;;;;;;;25.07;22.03;;;;;;;;;;5054847;28;20178;-69
2023/08/29 05:03:05;;;;;;;23.93;21.53;;;;;;;;;;5054593;28;20556;-69
2023/08/29 05:05:31;;;;;;;23.87;20.87;;;;;;;;;;5054541;28;20533;-69
2023/08/29 05:07:57;;;;;;;24.37;21.80;;;;;;;;;;5036109;28;20198;-69
2023/08/29 05:10:24;;;;;;;24.27;21.73;;;;;;;;;;5036349;28;20182;-69
2023/08/29 05:12:50;;;;;;;23.70;21.30;;;;;;;;;;5054797;28;20178;-69
2023/08/29 05:15:16;;;;;;;24.23;20.73;;;;;;;;;;5035738;28;20202;-69
2023/08/29 05:17:42;;;;;;;21.97;19.83;;;;;;;;;;5053949;28;20181;-68
2023/08/29 05:20:09;;;;;;;22.20;20.10;;;;;;;;;;5043093;22;20262;-67
2023/08/29 05:22:35;;;;;;;22.17;20.07;;;;;;;;;;5015642;28;20175;-68
2023/08/29 05:25:02;;;;;;;22.50;20.30;;;;;;;;;;5015602;28;20190;-68
2023/08/29 05:27:28;;;;;;;20.70;18.70;;;;;;;;;;5033128;28;20633;-66
2023/08/29 05:29:54;;;;;;;21.40;19.13;;;;;;;;;;5032956;28;20214;-67
2023/08/29 05:32:20;;;;;;;21.53;19.20;;;;;;;;;;5036687;28;20692;-67
2023/08/29 05:34:46;;;;;;;20.83;18.20;;;;;;;;;;5042658;28;20652;-67
2023/08/29 05:37:12;;;;;;;21.20;19.07;;;;;;;;;;5027021;28;20179;-68
2023/08/29 05:39:39;;;;;;;22.10;18.57;;;;;;;;;;5026828;28;20260;-67
2023/08/29 05:42:05;;;;;;;20.53;18.53;;;;;;;;;;5023206;28;20194;-66
2023/08/29 05:44:31;;;;;;;19.60;17.80;;;;;;;;;;5024001;28;20186;-66
2023/08/29 05:46:57;;;;;;;20.83;18.93;;;;;;;;;;5041568;28;20206;-66
2023/08/29 05:49:23;;;;;;;18.90;16.90;;;;;;;;;;5023806;28;20682;-67
2023/08/29 05:51:49;;;;;;;18.60;16.67;;;;;;;;;;5024068;28;20633;-67
2023/08/29 05:54:15;;;;;;;18.47;16.80;;;;;;;;;;5041718;28;20179;-66
2023/08/29 05:56:41;;;;;;;18.23;16.40;;;;;;;;;;5027218;28;20213;-67
2023/08/29 05:59:07;;;;;;;19.20;17.10;;;;;;;;;;5027196;28;20198;-67
2023/08/29 06:01:35;;;;;;;17.87;16.17;;;;;;;;;;5044896;28;20633;-67
2023/08/29 06:04:01;;;;;;;18.63;16.63;;;;;;;;;;5044791;28;20176;-67
2023/08/29 06:06:27;;;;;;;17.53;15.83;;;;;;;;;;5044575;28;20229;-67
2023/08/29 06:08:52;;;;;;;18.07;16.13;;;;;;;;;;5045516;28;20198;-68
2023/08/29 06:11:18;;;;;;;21.23;16.20;;;;;;;;;;5043948;28;20171;-68
2023/08/29 06:13:44;;;;;;;18.53;16.70;;;;;;;;;;5045431;28;20167;-66
2023/08/29 06:16:11;;;;;;;17.87;15.33;;;;;;;;;;5029557;28;20210;-67
2023/08/29 06:18:36;;;;;;;17.10;15.27;;;;;;;;;;5024148;28;20257;-67
2023/08/29 06:21:04;;;;;;;17.60;15.90;;;;;;;;;;5036430;28;20192;-67
2023/08/29 06:23:30;;;;;;;17.17;15.47;;;;;;;;;;5018176;28;20191;-67
2023/08/29 06:25:56;;;;;;;16.53;14.87;;;;;;;;;;5036250;28;20267;-67
2023/08/29 06:28:22;;;;;;;15.97;14.40;;;;;;;;;;5042227;28;20282;-67
2023/08/29 06:30:48;;;;;;;15.53;14.03;;;;;;;;;;5055065;28;20175;-67
2023/08/29 06:33:14;;;;;;;16.43;14.83;;;;;;;;;;5055164;28;20175;-69
2023/08/29 06:35:40;;;;;;;16.40;14.33;;;;;;;;;;5028421;28;20183;-67
2023/08/29 06:38:07;;;;;;;15.40;13.23;;;;;;;;;;5019652;28;20240;-67
2023/08/29 06:40:33;;;;;;;15.43;13.93;;;;;;;;;;5018982;28;20653;-67
2023/08/29 06:42:59;;;;;;;15.03;13.43;;;;;;;;;;5018035;28;20195;-67
2023/08/29 06:45:25;;;;;;;14.83;13.43;;;;;;;;;;5036133;28;20178;-67
2023/08/29 06:47:51;;;;;;;14.90;12.30;;;;;;;;;;5018208;28;20211;-67
2023/08/29 06:50:17;;;;;;;12.97;11.77;;;;;;;;;;5017793;28;20198;-67
2023/08/29 06:52:43;;;;;;;13.63;12.23;;;;;;;;;;5036711;28;20171;-67
2023/08/29 06:55:13;;;;;;;12.93;11.77;;;;;;;;;;5035410;28;20171;-67
2023/08/29 06:57:39;;;;;;;13.33;11.93;;;;;;;;;;5035986;28;20183;-67
2023/08/29 07:00:05;;;;;;;18.03;12.40;;;;;;;;;;5017714;28;20199;-67
2023/08/29 07:02:31;;;;;;;12.50;11.40;;;;;;;;;;5035996;28;20188;-67
2023/08/29 07:04:57;;;;;;;12.73;11.53;;;;;;;;;;5035805;28;20690;-67
2023/08/29 07:07:23;;;;;;;12.20;11.10;;;;;;;;;;5035214;28;20209;-67
2023/08/29 07:09:49;;;;;;;12.20;11.00;;;;;;;;;;5035244;28;20330;-67
2023/08/29 07:12:15;;;;;;;12.57;11.03;;;;;;;;;;5017226;28;20178;-68
2023/08/29 07:14:41;;;;;;;15.30;11.87;;;;;;;;;;5035644;28;20179;-68
2023/08/29 07:17:07;;;;;;;13.87;11.83;;;;;;;;;;5035282;28;20175;-68
2023/08/29 07:19:33;;;;;;;11.50;10.30;;;;;;;;;;5035559;28;20246;-68
2023/08/29 07:21:59;;;;;;;11.47;10.30;;;;;;;;;;5034985;28;20179;-68
2023/08/29 07:24:25;;;;;;;11.20;10.20;;;;;;;;;;5035292;28;20179;-68
2023/08/29 07:26:51;;;;;;;11.33;10.23;;;;;;;;;;5035265;28;20290;-68
2023/08/29 07:29:17;;;;;;;10.50;9.40;;;;;;;;;;5035276;28;20202;-68
2023/08/29 07:31:43;;;;;;;11.03;9.33;;;;;;;;;;5035273;28;20179;-68
2023/08/29 07:34:09;;;;;;;9.63;8.73;;;;;;;;;;5017734;28;20198;-68
2023/08/29 07:36:34;;;;;;;10.77;9.77;;;;;;;;;;5035473;28;20550;-68
2023/08/29 07:39:00;;;;;;;8.63;7.40;;;;;;;;;;5035077;28;20618;-68
2023/08/29 07:41:26;;;;;;;9.53;7.83;;;;;;;;;;5034917;28;20660;-68
2023/08/29 07:43:52;;;;;;;10.57;8.33;;;;;;;;;;5034860;28;20178;-68
2023/08/29 07:46:18;;;;;;;8.70;7.77;;;;;;;;;;5035015;28;20224;-67
2023/08/29 07:48:44;;;;;;;9.73;8.87;;;;;;;;;;5017011;28;20704;-68
2023/08/29 07:51:11;;;;;;;11.17;7.77;;;;;;;;;;5034782;28;20221;-68
2023/08/29 07:53:37;;;;;;;7.60;6.90;;;;;;;;;;5034150;28;20210;-68
2023/08/29 07:56:03;;;;;;;8.47;7.60;;;;;;;;;;5016578;28;20234;-68
2023/08/29 07:58:29;;;;;;;8.90;7.53;;;;;;;;;;5034461;28;20191;-68
2023/08/29 08:00:55;;;;;;;9.37;7.07;;;;;;;;;;5034012;28;20171;-68
2023/08/29 08:03:21;;;;;;;8.00;5.73;;;;;;;;;;5034536;28;20171;-68
2023/08/29 08:05:47;;;;;;;9.43;6.40;;;;;;;;;;5016562;28;20650;-68
2023/08/29 08:08:14;;;;;;;7.57;5.83;;;;;;;;;;5035009;28;20677;-68
2023/08/29 08:10:40;;;;;;;6.67;6.17;;;;;;;;;;5034287;28;20266;-68
2023/08/29 08:13:07;;;;;;;6.93;6.07;;;;;;;;;;5033921;28;20280;-69
2023/08/29 08:15:33;;;;;;;6.27;4.00;;;;;;;;;;5034485;28;20174;-68
2023/08/29 08:17:59;;;;;;;7.10;5.70;;;;;;;;;;5034596;28;20179;-68
2023/08/29 08:20:24;;;;;;;6.60;6.00;;;;;;;;;;5016877;28;20396;-68
2023/08/29 08:22:50;;;;;;;7.63;5.60;;;;;;;;;;5034507;28;20592;-68
2023/08/29 08:25:16;;;;;;;6.03;5.47;;;;;;;;;;5016782;28;20697;-67
2023/08/29 08:27:42;;;;;;;9.10;6.83;;;;;;;;;;5034253;28;20289;-68
2023/08/29 08:30:08;;;;;;;6.27;5.40;;;;;;;;;;5033759;28;20310;-68
2023/08/29 08:32:35;;;;;;;5.93;4.90;;;;;;;;;;5034148;28;20171;-68
2023/08/29 08:35:01;;;;;;;4.87;4.43;;;;;;;;;;5033941;28;20171;-68
2023/08/29 08:37:27;;;;;;;5.30;4.80;;;;;;;;;;5034693;28;20178;-67
2023/08/29 08:39:53;;;;;;;7.13;4.33;;;;;;;;;;5016092;28;20705;-68
2023/08/29 08:42:19;;;;;;;4.93;4.40;;;;;;;;;;5034126;28;20175;-68
2023/08/29 08:44:45;;;;;;;5.27;4.60;;;;;;;;;;5034215;28;20184;-68
2023/08/29 08:47:12;;;;;;;7.23;4.87;;;;;;;;;;5034548;28;20209;-69
2023/08/29 08:49:38;;;;;;;7.57;5.70;;;;;;;;;;5036913;28;20195;-67
2023/08/29 08:52:05;;;;;;;8.70;5.53;;;;;;;;;;5016183;28;20214;-68
2023/08/29 08:54:31;;;;;;;5.13;4.47;;;;;;;;;;5033689;28;20175;-67
2023/08/29 08:56:57;;;;;;;6.03;4.80;;;;;;;;;;5033258;28;20253;-67
2023/08/29 08:59:24;;;;;;;5.27;4.10;;;;;;;;;;5015454;28;20203;-68
2023/08/29 09:01:50;;;;;;;5.07;4.47;;;;;;;;;;5033050;28;20179;-67
2023/08/29 09:04:16;;;;;;;6.00;4.10;;;;;;;;;;5032963;28;20179;-67
2023/08/29 09:06:42;;;;;;;7.40;3.70;;;;;;;;;;5036082;28;20179;-68
2023/08/29 09:09:34;;;;;;;6.70;4.03;;;;;;;;;;5037403;28;20200;-69
2023/08/29 09:12:00;;;;;;;4.13;3.43;;;;;;;;;;5034417;28;20191;-67
2023/08/29 09:14:27;;;;;;;3.33;2.57;;;;;;;;;;5037199;28;20616;-67
2023/08/29 09:16:54;;;;;;;3.83;2.50;;;;;;;;;;5018903;28;20183;-67
2023/08/29 09:19:22;;;;;;;2.13;1.93;;;;;;;;;;5036573;28;20221;-67
2023/08/29 09:21:48;;;;;;;3.30;2.30;;;;;;;;;;5019651;28;20240;-67
2023/08/29 09:24:14;;;;;;;4.87;2.70;;;;;;;;;;5036976;28;20261;-67
2023/08/29 09:26:43;;;;;;;2.60;2.40;;;;;;;;;;5036860;28;20187;-67
2023/08/29 09:29:30;;;;;;;3.13;2.83;;;;;;;;;;5036534;28;20669;-67
2023/08/29 09:31:58;;;;;;;4.67;2.80;;;;;;;;;;5018683;28;20665;-67
2023/08/29 09:34:25;;;;;;;4.13;3.27;;;;;;;;;;5018941;28;20592;-66
2023/08/29 09:36:51;;;;;;;6.33;3.03;;;;;;;;;;5036445;28;20213;-68
2023/08/29 09:39:17;;;;;;;3.23;2.30;;;;;;;;;;5019576;28;20246;-67
2023/08/29 09:41:43;;;;;;;4.60;2.87;;;;;;;;;;5036666;28;20241;-67
2023/08/29 09:44:12;;;;;;;3.83;2.47;;;;;;;;;;5036305;28;20183;-68
2023/08/29 09:46:43;;;;;;;7.53;3.10;;;;;;;;;;5036157;28;20194;-67
2023/08/29 09:49:09;;;;;;;3.03;2.50;;;;;;;;;;5036852;28;20587;-67
2023/08/29 09:51:36;;;;;;;6.53;3.40;;;;;;;;;;5036835;28;20655;-67
2023/08/29 09:54:05;;;;;;;4.10;3.30;;;;;;;;;;5039420;28;20698;-67
2023/08/29 09:56:32;;;;;;;4.83;3.23;;;;;;;;;;5044778;28;20243;-67
2023/08/29 09:58:59;;;;;;;3.50;2.60;;;;;;;;;;5049772;28;20222;-67
2023/08/29 10:01:26;;;;;;;4.97;2.53;;;;;;;;;;5046188;28;20178;-67
2023/08/29 10:03:52;;;;;;;3.10;2.60;;;;;;;;;;5020480;28;20556;-67
2023/08/29 10:06:18;;;;;;;3.63;2.90;;;;;;;;;;5037184;28;20645;-67
2023/08/29 10:08:51;;;;;;;4.57;3.07;;;;;;;;;;5036962;28;20211;-67
2023/08/29 10:11:19;;;;;;;3.30;3.00;;;;;;;;;;5018413;28;20171;-68
2023/08/29 10:13:45;;;;;;;3.77;2.60;;;;;;;;;;5017908;28;20637;-67
2023/08/29 10:16:13;;;;;;;5.03;3.20;;;;;;;;;;5036157;28;20267;-67
2023/08/29 10:18:40;;;;;;;4.10;3.00;;;;;;;;;;5034746;28;20207;-67
2023/08/29 10:21:06;;;;;;;7.93;3.47;;;;;;;;;;5017716;28;20182;-67
2023/08/29 10:23:32;;;;;;;5.20;3.07;;;;;;;;;;5035317;28;20179;-67
2023/08/29 10:26:00;;;;;;;3.10;2.77;;;;;;;;;;5035248;28;20179;-67
2023/08/29 10:28:26;;;;;;;2.97;2.43;;;;;;;;;;5017306;28;20207;-67
2023/08/29 10:30:53;;;;;;;5.50;2.13;;;;;;;;;;5035259;28;20182;-68
2023/08/29 10:33:20;;;;;;;5.73;4.13;;;;;;;;;;5017326;28;20697;-67
2023/08/29 10:35:49;;;;;;;3.83;2.90;;;;;;;;;;5035433;28;20221;-67
2023/08/29 10:38:17;;;;;;;5.37;2.10;;;;;;;;;;5017270;28;20183;-66
2023/08/29 10:40:43;;;;;;;2.90;2.30;;;;;;;;;;5035159;28;20183;-66
2023/08/29 10:43:24;;;;;;;2.77;1.90;;;;;;;;;;5017772;28;20183;-67
2023/08/29 10:45:56;;;;;;;3.37;2.00;;;;;;;;;;5035551;28;20178;-66
2023/08/29 10:48:24;;;;;;;3.37;1.80;;;;;;;;;;5035216;28;20195;-66
2023/08/29 10:51:08;;;;;;;3.53;2.20;;;;;;;;;;5035453;28;20210;-67
2023/08/29 10:53:38;;;;;;;3.13;2.00;;;;;;;;;;5017220;28;20192;-67
2023/08/29 10:56:05;;;;;;;2.63;1.80;;;;;;;;;;5034893;28;20175;-66
2023/08/29 10:58:41;;;;;;;2.57;2.07;;;;;;;;;;5016822;28;20249;-67
2023/08/29 11:01:07;;;;;;;3.10;1.93;;;;;;;;;;5034464;28;20182;-67
2023/08/29 11:03:48;;;;;;;2.27;2.07;;;;;;;;;;5016916;28;20562;-67
2023/08/29 11:06:15;;;;;;;3.23;2.20;;;;;;;;;;5016738;28;20720;-66
2023/08/29 11:08:41;;;;;;;2.60;2.20;;;;;;;;;;5034303;28;20589;-67
2023/08/29 11:11:14;;;;;;;2.60;2.20;;;;;;;;;;5017013;28;20551;-67
2023/08/29 11:13:59;;;;;;;3.80;2.03;;;;;;;;;;5034837;28;20536;-67
2023/08/29 11:16:26;;;;;;;2.83;2.20;;;;;;;;;;5034227;28;20197;-67
2023/08/29 11:19:10;;;;;;;2.70;1.43;;;;;;;;;;5034523;28;20214;-67
2023/08/29 11:21:36;;;;;;;2.27;1.50;;;;;;;;;;5016481;28;20187;-67
2023/08/29 11:24:05;;;;;;;1.97;1.63;;;;;;;;;;5034196;28;20649;-66
2023/08/29 11:26:33;;;;;;;2.37;1.80;;;;;;;;;;5034001;28;20648;-67
2023/08/29 11:29:00;;;;;;;3.17;1.63;;;;;;;;;;5033820;28;20191;-67
2023/08/29 11:31:26;;;;;;;2.70;1.70;;;;;;;;;;5034237;28;20179;-67
2023/08/29 11:33:52;;;;;;;3.00;1.90;;;;;;;;;;5016149;28;20190;-67
2023/08/29 11:36:18;;;;;;;1.30;1.20;;;;;;;;;;5033973;28;20258;-67
2023/08/29 11:38:44;;;;;;;2.43;1.40;;;;;;;;;;5016126;28;20245;-67
2023/08/29 11:41:12;;;;;;;1.37;1.27;;;;;;;;;;5034093;28;20668;-67
2023/08/29 11:43:39;;;;;;;3.37;1.90;;;;;;;;;;5034108;28;20182;-67
2023/08/29 11:46:06;;;;;;;3.23;2.00;;;;;;;;;;5033812;28;20179;-67
2023/08/29 11:48:33;;;;;;;2.87;1.87;;;;;;;;;;5016050;28;20286;-67
2023/08/29 11:51:03;;;;;;;2.00;1.80;;;;;;;;;;5044348;28;20200;-67
2023/08/29 11:53:31;;;;;;;4.60;1.87;;;;;;;;;;5045085;28;20253;-67
2023/08/29 11:55:57;;;;;;;6.37;2.30;;;;;;;;;;5042074;28;20171;-67
2023/08/29 11:58:24;;;;;;;7.40;2.13;;;;;;;;;;5040136;28;20262;-66
2023/08/29 12:00:50;;;;;;;3.97;2.53;;;;;;;;;;5024500;28;20190;-67
2023/08/29 12:03:20;;;;;;;3.93;2.30;;;;;;;;;;5048731;28;20186;-67
2023/08/29 12:05:47;;;;;;;2.33;2.10;;;;;;;;;;5038020;28;20178;-67
2023/08/29 12:08:13;;;;;;;3.63;2.30;;;;;;;;;;5016571;28;20221;-69
2023/08/29 12:10:49;;;;;;;5.13;2.40;;;;;;;;;;5033929;28;20661;-67
2023/08/29 12:13:15;;;;;;;2.87;2.43;;;;;;;;;;5034327;28;20167;-67
2023/08/29 12:15:41;;;;;;;3.83;2.27;;;;;;;;;;5034248;28;20551;-67
2023/08/29 12:18:07;;;;;;;5.60;1.90;;;;;;;;;;5033445;28;20229;-67
2023/08/29 12:20:36;;;;;;;3.30;2.13;;;;;;;;;;5033419;28;20194;-66
2023/08/29 12:23:02;;;;;;;3.33;1.77;;;;;;;;;;5033421;28;20203;-67
2023/08/29 12:25:28;;;;;;;3.30;2.40;;;;;;;;;;5033387;28;20210;-67
2023/08/29 12:27:54;;;;;;;3.97;2.07;;;;;;;;;;5033335;28;20256;-67
2023/08/29 12:30:20;;;;;;;5.33;2.30;;;;;;;;;;5033365;28;20199;-66
2023/08/29 12:32:47;;;;;;;2.57;1.87;;;;;;;;;;5033734;28;20182;-69
2023/08/29 12:35:14;;;;;;;4.03;2.20;;;;;;;;;;5034057;28;20255;-69
2023/08/29 12:37:40;;;;;;;4.83;1.60;;;;;;;;;;5016475;28;20633;-68
2023/08/29 12:40:08;;;;;;;2.20;1.73;;;;;;;;;;5033861;28;20206;-67
2023/08/29 12:42:35;;;;;;;4.70;2.50;;;;;;;;;;5017135;28;20699;-70
2023/08/29 12:45:01;;;;;;;2.00;1.50;;;;;;;;;;5034566;28;20194;-69
2023/08/29 12:47:27;;;;;;;2.97;2.10;;;;;;;;;;5034564;28;20194;-68
2023/08/29 12:49:53;;;;;;;2.23;2.00;;;;;;;;;;5036046;28;20646;-69
2023/08/29 12:52:19;;;;;;;1.97;1.57;;;;;;;;;;5017057;28;20182;-66
2023/08/29 12:54:45;;;;;;;2.43;1.50;;;;;;;;;;5032768;28;20179;-66
2023/08/29 12:57:11;;;;;;;2.97;1.50;;;;;;;;;;5015276;28;20594;-66
2023/08/29 12:59:37;;;;;;;1.50;1.40;;;;;;;;;;5032590;28;20253;-67
2023/08/29 13:02:05;;;;;;;2.23;1.60;;;;;;;;;;5014892;28;20630;-66
2023/08/29 13:04:31;;;;;;;4.60;3.40;;;;;;;;;;5033292;28;20180;-66
2023/08/29 13:06:57;;;;;;;12.63;7.37;;;;;;;;;;5033393;28;20690;-67
2023/08/29 13:09:23;;;;;;;13.17;7.40;;;;;;;;;;5032725;28;20691;-67
2023/08/29 13:11:49;;;;;;;8.27;6.17;;;;;;;;;;5033076;28;20228;-67
2023/08/29 13:14:15;;;;;;;10.17;8.10;;;;;;;;;;5033394;28;20176;-67
2023/08/29 13:16:41;;;;;;;8.47;5.83;;;;;;;;;;5033364;28;20689;-67
2023/08/29 13:19:07;;;;;;;8.23;6.03;;;;;;;;;;5034928;28;20621;-66
2023/08/29 13:21:34;;;;;;;5.67;3.43;;;;;;;;;;5042198;28;20243;-66
2023/08/29 13:24:00;;;;;;;3.60;2.77;;;;;;;;;;5040027;28;20356;-66
2023/08/29 13:26:26;;;;;;;3.00;2.03;;;;;;;;;;5033347;28;20171;-66
2023/08/29 13:28:53;;;;;;;2.63;2.20;;;;;;;;;;5033327;28;20289;-67
2023/08/29 13:31:20;;;;;;;2.47;1.60;;;;;;;;;;5015009;28;20298;-66
2023/08/29 13:33:46;;;;;;;2.33;1.60;;;;;;;;;;5032685;28;20259;-67
2023/08/29 13:36:13;;;;;;;2.00;1.80;;;;;;;;;;5032571;28;20732;-67
2023/08/29 13:38:39;;;;;;;1.97;1.57;;;;;;;;;;5014603;28;20202;-67
2023/08/29 13:41:07;;;;;;;1.70;1.60;;;;;;;;;;5032334;28;20221;-67
2023/08/29 13:43:33;;;;;;;2.30;1.40;;;;;;;;;;5032582;28;20176;-67
2023/08/29 13:45:59;;;;;;;3.80;1.50;;;;;;;;;;5032304;28;20199;-67
2023/08/29 13:48:25;;;;;;;4.13;1.93;;;;;;;;;;5032238;28;20199;-67
2023/08/29 13:50:54;;;;;;;4.50;1.67;;;;;;;;;;5032482;28;20542;-67
2023/08/29 13:53:20;;;;;;;1.60;1.50;;;;;;;;;;5034522;28;20212;-67
2023/08/29 13:55:47;;;;;;;2.77;1.50;;;;;;;;;;5035844;28;20246;-67
2023/08/29 13:58:13;;;;;;;1.40;1.30;;;;;;;;;;5035690;28;20194;-67
2023/08/29 14:00:39;;;;;;;1.63;1.10;;;;;;;;;;5035746;28;20171;-66
2023/08/29 14:03:05;;;;;;;2.80;1.30;;;;;;;;;;5018738;28;20569;-67
2023/08/29 14:05:32;;;;;;;2.80;1.40;;;;;;;;;;5035787;28;20551;-67
2023/08/29 14:07:58;;;;;;;2.30;1.33;;;;;;;;;;5035789;28;20210;-67
2023/08/29 14:10:24;;;;;;;1.70;1.50;;;;;;;;;;5062781;22;20249;-66
2023/08/29 14:12:50;;;;;;;1.73;1.40;;;;;;;;;;5038052;28;20268;-67
2023/08/29 14:15:16;;;;;;;2.07;1.40;;;;;;;;;;5037985;28;20178;-67
2023/08/29 14:17:42;;;;;;;1.40;1.30;;;;;;;;;;5056617;28;20175;-67
2023/08/29 14:20:09;;;;;;;3.57;1.50;;;;;;;;;;5056097;28;20289;-67
2023/08/29 14:22:35;;;;;;;6.10;1.10;;;;;;;;;;5037887;28;20183;-67
2023/08/29 14:25:01;;;;;;;1.20;1.10;;;;;;;;;;5038010;28;20193;-66